sensor_id;sensor_type;location;lat;lon;timestamp;temperature;humidity
13521;DHT22;6832;51.186;3.236;2023-07-16T00:00:43;28.00;48.00
13521;DHT22;6832;51.186;3.236;2023-07-16T00:03:10;28.00;48.00
13521;DHT22;6832;51.186;3.236;2023-07-16T00:05:38;28.00;48.00
13521;DHT22;6832;51.186;3.236;2023-07-16T00:08:05;28.00;48.00
13521;DHT22;6832;51.186;3.236;2023-07-16T00:10:34;28.00;48.00
13521;DHT22;6832;51.186;3.236;2023-07-16T00:13:01;28.00;48.00
13521;DHT22;6832;51.186;3.236;2023-07-16T00:15:28;28.00;48.00
13521;DHT22;6832;51.186;3.236;2023-07-16T00:17:55;28.00;48.00
13521;DHT22;6832;51.186;3.236;2023-07-16T00:20:22;28.00;48.00
13521;DHT22;6832;51.186;3.236;2023-07-16T00:22:51;28.00;48.00
13521;DHT22;6832;51.186;3.236;2023-07-16T00:25:18;28.00;48.00
13521;DHT22;6832;51.186;3.236;2023-07-16T00:27:44;28.00;48.00
13521;DHT22;6832;51.186;3.236;2023-07-16T00:30:11;27.90;47.90
13521;DHT22;6832;51.186;3.236;2023-07-16T00:32:39;28.00;48.00
13521;DHT22;6832;51.186;3.236;2023-07-16T00:35:06;28.00;48.00
13521;DHT22;6832;51.186;3.236;2023-07-16T00:37:33;27.90;47.90
13521;DHT22;6832;51.186;3.236;2023-07-16T00:40:02;27.90;47.90
13521;DHT22;6832;51.186;3.236;2023-07-16T00:42:29;27.90;47.90
13521;DHT22;6832;51.186;3.236;2023-07-16T00:44:56;27.90;47.90
13521;DHT22;6832;51.186;3.236;2023-07-16T00:47:23;27.90;47.90
13521;DHT22;6832;51.186;3.236;2023-07-16T00:49:50;27.90;47.90
13521;DHT22;6832;51.186;3.236;2023-07-16T00:52:19;27.90;47.90
13521;DHT22;6832;51.186;3.236;2023-07-16T00:54:48;27.90;48.00
13521;DHT22;6832;51.186;3.236;2023-07-16T00:57:17;27.90;48.00
13521;DHT22;6832;51.186;3.236;2023-07-16T00:59:43;27.90;48.00
13521;DHT22;6832;51.186;3.236;2023-07-16T01:02:10;27.90;48.00
13521;DHT22;6832;51.186;3.236;2023-07-16T01:04:37;27.90;48.00
13521;DHT22;6832;51.186;3.236;2023-07-16T01:07:06;27.90;48.00
13521;DHT22;6832;51.186;3.236;2023-07-16T01:09:37;27.90;48.00
13521;DHT22;6832;51.186;3.236;2023-07-16T01:12:08;27.80;48.00
13521;DHT22;6832;51.186;3.236;2023-07-16T01:14:37;27.90;48.00
13521;DHT22;6832;51.186;3.236;2023-07-16T01:17:05;27.90;48.00
13521;DHT22;6832;51.186;3.236;2023-07-16T01:19:32;27.90;48.10
13521;DHT22;6832;51.186;3.236;2023-07-16T01:22:10;27.90;48.10
13521;DHT22;6832;51.186;3.236;2023-07-16T01:24:59;27.90;48.10
13521;DHT22;6832;51.186;3.236;2023-07-16T01:27:43;27.80;48.00
13521;DHT22;6832;51.186;3.236;2023-07-16T01:30:15;27.80;48.00
13521;DHT22;6832;51.186;3.236;2023-07-16T01:32:42;27.70;47.90
13521;DHT22;6832;51.186;3.236;2023-07-16T01:35:11;27.80;48.10
13521;DHT22;6832;51.186;3.236;2023-07-16T01:37:39;27.80;48.10
13521;DHT22;6832;51.186;3.236;2023-07-16T01:40:08;27.80;48.10
13521;DHT22;6832;51.186;3.236;2023-07-16T01:42:35;27.80;48.10
13521;DHT22;6832;51.186;3.236;2023-07-16T01:45:02;27.80;48.10
13521;DHT22;6832;51.186;3.236;2023-07-16T01:47:39;27.80;48.10
13521;DHT22;6832;51.186;3.236;2023-07-16T01:50:07;27.80;48.10
13521;DHT22;6832;51.186;3.236;2023-07-16T01:52:34;27.80;48.10
13521;DHT22;6832;51.186;3.236;2023-07-16T01:55:01;27.80;48.10
13521;DHT22;6832;51.186;3.236;2023-07-16T01:57:28;27.80;48.10
13521;DHT22;6832;51.186;3.236;2023-07-16T01:59:55;27.80;48.10
13521;DHT22;6832;51.186;3.236;2023-07-16T02:02:21;27.80;48.10
13521;DHT22;6832;51.186;3.236;2023-07-16T02:04:50;27.80;48.10
13521;DHT22;6832;51.186;3.236;2023-07-16T02:07:17;27.80;48.10
13521;DHT22;6832;51.186;3.236;2023-07-16T02:09:43;27.80;48.20
13521;DHT22;6832;51.186;3.236;2023-07-16T02:12:10;27.80;48.20
13521;DHT22;6832;51.186;3.236;2023-07-16T02:14:37;27.70;48.10
13521;DHT22;6832;51.186;3.236;2023-07-16T02:17:04;27.70;48.10
13521;DHT22;6832;51.186;3.236;2023-07-16T02:19:31;27.80;48.20
13521;DHT22;6832;51.186;3.236;2023-07-16T02:22:00;27.70;48.20
13521;DHT22;6832;51.186;3.236;2023-07-16T02:24:26;27.80;48.10
13521;DHT22;6832;51.186;3.236;2023-07-16T02:26:53;27.70;48.10
13521;DHT22;6832;51.186;3.236;2023-07-16T02:29:20;27.70;48.10
13521;DHT22;6832;51.186;3.236;2023-07-16T02:31:47;27.70;48.10
13521;DHT22;6832;51.186;3.236;2023-07-16T02:34:14;27.70;48.10
13521;DHT22;6832;51.186;3.236;2023-07-16T02:36:41;27.70;48.10
13521;DHT22;6832;51.186;3.236;2023-07-16T02:39:10;27.70;48.10
13521;DHT22;6832;51.186;3.236;2023-07-16T02:41:36;27.70;48.10
13521;DHT22;6832;51.186;3.236;2023-07-16T02:44:05;27.70;48.10
13521;DHT22;6832;51.186;3.236;2023-07-16T02:46:32;27.70;48.10
13521;DHT22;6832;51.186;3.236;2023-07-16T02:48:59;27.70;48.10
13521;DHT22;6832;51.186;3.236;2023-07-16T02:51:26;27.70;48.20
13521;DHT22;6832;51.186;3.236;2023-07-16T02:53:53;27.70;48.10
13521;DHT22;6832;51.186;3.236;2023-07-16T02:56:21;27.70;48.10
13521;DHT22;6832;51.186;3.236;2023-07-16T02:58:48;27.70;48.10
13521;DHT22;6832;51.186;3.236;2023-07-16T03:01:15;27.70;48.10
13521;DHT22;6832;51.186;3.236;2023-07-16T03:03:42;27.70;48.10
13521;DHT22;6832;51.186;3.236;2023-07-16T03:06:09;27.70;48.10
13521;DHT22;6832;51.186;3.236;2023-07-16T03:08:36;27.60;48.10
13521;DHT22;6832;51.186;3.236;2023-07-16T03:11:03;27.70;48.10
13521;DHT22;6832;51.186;3.236;2023-07-16T03:13:31;27.60;48.10
13521;DHT22;6832;51.186;3.236;2023-07-16T03:15:58;27.60;48.10
13521;DHT22;6832;51.186;3.236;2023-07-16T03:18:28;27.60;48.10
13521;DHT22;6832;51.186;3.236;2023-07-16T03:20:55;27.60;48.10
13521;DHT22;6832;51.186;3.236;2023-07-16T03:23:22;27.60;48.10
13521;DHT22;6832;51.186;3.236;2023-07-16T03:25:49;27.60;48.10
13521;DHT22;6832;51.186;3.236;2023-07-16T03:28:16;27.60;48.10
13521;DHT22;6832;51.186;3.236;2023-07-16T03:30:46;27.60;48.10
13521;DHT22;6832;51.186;3.236;2023-07-16T03:33:13;27.60;48.10
13521;DHT22;6832;51.186;3.236;2023-07-16T03:35:42;27.60;48.10
13521;DHT22;6832;51.186;3.236;2023-07-16T03:38:10;27.50;48.10
13521;DHT22;6832;51.186;3.236;2023-07-16T03:40:37;27.50;48.10
13521;DHT22;6832;51.186;3.236;2023-07-16T03:43:04;27.50;48.10
13521;DHT22;6832;51.186;3.236;2023-07-16T03:45:31;27.50;48.10
13521;DHT22;6832;51.186;3.236;2023-07-16T03:47:59;27.50;48.10
13521;DHT22;6832;51.186;3.236;2023-07-16T03:50:26;27.50;48.10
13521;DHT22;6832;51.186;3.236;2023-07-16T03:52:53;27.50;48.00
13521;DHT22;6832;51.186;3.236;2023-07-16T03:55:20;27.50;48.00
13521;DHT22;6832;51.186;3.236;2023-07-16T03:57:47;27.50;47.80
13521;DHT22;6832;51.186;3.236;2023-07-16T04:00:14;27.50;47.70
13521;DHT22;6832;51.186;3.236;2023-07-16T04:02:41;27.50;47.60
13521;DHT22;6832;51.186;3.236;2023-07-16T04:05:09;27.50;47.70
13521;DHT22;6832;51.186;3.236;2023-07-16T04:07:36;27.50;47.60
13521;DHT22;6832;51.186;3.236;2023-07-16T04:10:04;27.40;47.60
13521;DHT22;6832;51.186;3.236;2023-07-16T04:12:31;27.40;47.60
13521;DHT22;6832;51.186;3.236;2023-07-16T04:14:58;27.40;47.60
13521;DHT22;6832;51.186;3.236;2023-07-16T04:17:25;27.40;47.60
13521;DHT22;6832;51.186;3.236;2023-07-16T04:19:52;27.30;47.50
13521;DHT22;6832;51.186;3.236;2023-07-16T04:22:21;27.30;47.50
13521;DHT22;6832;51.186;3.236;2023-07-16T04:24:48;27.30;47.40
13521;DHT22;6832;51.186;3.236;2023-07-16T04:27:14;27.30;47.40
13521;DHT22;6832;51.186;3.236;2023-07-16T04:29:41;27.20;47.30
13521;DHT22;6832;51.186;3.236;2023-07-16T04:32:08;27.20;47.20
13521;DHT22;6832;51.186;3.236;2023-07-16T04:34:35;27.20;47.30
13521;DHT22;6832;51.186;3.236;2023-07-16T04:37:02;27.10;47.20
13521;DHT22;6832;51.186;3.236;2023-07-16T04:39:31;27.10;47.20
13521;DHT22;6832;51.186;3.236;2023-07-16T04:41:57;27.10;47.30
13521;DHT22;6832;51.186;3.236;2023-07-16T04:44:24;27.10;47.30
13521;DHT22;6832;51.186;3.236;2023-07-16T04:46:51;27.00;47.30
13521;DHT22;6832;51.186;3.236;2023-07-16T04:49:18;26.90;47.30
13521;DHT22;6832;51.186;3.236;2023-07-16T04:51:45;26.90;47.30
13521;DHT22;6832;51.186;3.236;2023-07-16T04:54:12;26.90;47.30
13521;DHT22;6832;51.186;3.236;2023-07-16T04:56:40;26.90;47.30
13521;DHT22;6832;51.186;3.236;2023-07-16T04:59:07;26.90;47.30
13521;DHT22;6832;51.186;3.236;2023-07-16T05:01:34;26.80;47.30
13521;DHT22;6832;51.186;3.236;2023-07-16T05:04:00;26.90;47.30
13521;DHT22;6832;51.186;3.236;2023-07-16T05:06:27;26.80;47.30
13521;DHT22;6832;51.186;3.236;2023-07-16T05:08:54;26.80;47.20
13521;DHT22;6832;51.186;3.236;2023-07-16T05:11:21;26.70;47.20
13521;DHT22;6832;51.186;3.236;2023-07-16T05:13:49;26.80;47.30
13521;DHT22;6832;51.186;3.236;2023-07-16T05:16:16;26.70;47.20
13521;DHT22;6832;51.186;3.236;2023-07-16T05:18:43;26.70;47.20
13521;DHT22;6832;51.186;3.236;2023-07-16T05:21:10;26.70;47.20
13521;DHT22;6832;51.186;3.236;2023-07-16T05:23:37;26.60;47.10
13521;DHT22;6832;51.186;3.236;2023-07-16T05:26:04;26.60;47.10
13521;DHT22;6832;51.186;3.236;2023-07-16T05:28:31;26.60;47.10
13521;DHT22;6832;51.186;3.236;2023-07-16T05:31:00;26.60;47.20
13521;DHT22;6832;51.186;3.236;2023-07-16T05:33:27;26.60;47.20
13521;DHT22;6832;51.186;3.236;2023-07-16T05:35:54;26.50;47.20
13521;DHT22;6832;51.186;3.236;2023-07-16T05:38:22;26.60;47.30
13521;DHT22;6832;51.186;3.236;2023-07-16T05:40:48;26.50;47.30
13521;DHT22;6832;51.186;3.236;2023-07-16T05:43:15;26.50;47.40
13521;DHT22;6832;51.186;3.236;2023-07-16T05:45:42;26.50;47.30
13521;DHT22;6832;51.186;3.236;2023-07-16T05:48:10;26.50;47.40
13521;DHT22;6832;51.186;3.236;2023-07-16T05:50:37;26.50;47.40
13521;DHT22;6832;51.186;3.236;2023-07-16T05:53:04;26.50;47.40
13521;DHT22;6832;51.186;3.236;2023-07-16T05:55:31;26.40;47.40
13521;DHT22;6832;51.186;3.236;2023-07-16T05:57:58;26.40;47.40
13521;DHT22;6832;51.186;3.236;2023-07-16T06:00:25;26.40;47.40
13521;DHT22;6832;51.186;3.236;2023-07-16T06:02:52;26.40;47.60
13521;DHT22;6832;51.186;3.236;2023-07-16T06:05:20;26.40;47.50
13521;DHT22;6832;51.186;3.236;2023-07-16T06:07:47;26.40;47.50
13521;DHT22;6832;51.186;3.236;2023-07-16T06:10:14;26.30;47.50
13521;DHT22;6832;51.186;3.236;2023-07-16T06:12:40;26.40;47.50
13521;DHT22;6832;51.186;3.236;2023-07-16T06:15:09;26.40;47.50
13521;DHT22;6832;51.186;3.236;2023-07-16T06:17:35;26.40;47.50
13521;DHT22;6832;51.186;3.236;2023-07-16T06:20:03;26.40;47.50
13521;DHT22;6832;51.186;3.236;2023-07-16T06:22:32;26.40;47.60
13521;DHT22;6832;51.186;3.236;2023-07-16T06:24:59;26.30;47.50
13521;DHT22;6832;51.186;3.236;2023-07-16T06:27:26;26.40;47.70
13521;DHT22;6832;51.186;3.236;2023-07-16T06:29:53;26.30;47.60
13521;DHT22;6832;51.186;3.236;2023-07-16T06:32:21;26.30;47.60
13521;DHT22;6832;51.186;3.236;2023-07-16T06:34:48;26.30;47.60
13521;DHT22;6832;51.186;3.236;2023-07-16T06:37:14;26.30;47.70
13521;DHT22;6832;51.186;3.236;2023-07-16T06:39:43;26.30;47.70
13521;DHT22;6832;51.186;3.236;2023-07-16T06:42:10;26.30;47.70
13521;DHT22;6832;51.186;3.236;2023-07-16T06:44:36;26.30;48.00
13521;DHT22;6832;51.186;3.236;2023-07-16T06:47:04;26.30;47.80
13521;DHT22;6832;51.186;3.236;2023-07-16T06:49:31;26.30;47.80
13521;DHT22;6832;51.186;3.236;2023-07-16T06:52:00;26.30;47.70
13521;DHT22;6832;51.186;3.236;2023-07-16T06:54:27;26.30;47.80
13521;DHT22;6832;51.186;3.236;2023-07-16T06:56:55;26.30;47.80
13521;DHT22;6832;51.186;3.236;2023-07-16T06:59:22;26.30;47.80
13521;DHT22;6832;51.186;3.236;2023-07-16T07:01:49;26.30;47.80
13521;DHT22;6832;51.186;3.236;2023-07-16T07:04:16;26.30;47.80
13521;DHT22;6832;51.186;3.236;2023-07-16T07:06:43;26.30;47.90
13521;DHT22;6832;51.186;3.236;2023-07-16T07:09:09;26.30;47.90
13521;DHT22;6832;51.186;3.236;2023-07-16T07:11:36;26.30;47.90
13521;DHT22;6832;51.186;3.236;2023-07-16T07:14:05;26.30;47.90
13521;DHT22;6832;51.186;3.236;2023-07-16T07:16:31;26.30;47.90
13521;DHT22;6832;51.186;3.236;2023-07-16T07:18:58;26.30;47.90
13521;DHT22;6832;51.186;3.236;2023-07-16T07:21:25;26.30;48.00
13521;DHT22;6832;51.186;3.236;2023-07-16T07:23:52;26.30;47.90
13521;DHT22;6832;51.186;3.236;2023-07-16T07:26:19;26.30;48.00
13521;DHT22;6832;51.186;3.236;2023-07-16T07:28:46;26.30;48.00
13521;DHT22;6832;51.186;3.236;2023-07-16T07:31:14;26.30;48.00
13521;DHT22;6832;51.186;3.236;2023-07-16T07:33:41;26.30;48.00
13521;DHT22;6832;51.186;3.236;2023-07-16T07:36:07;26.30;48.10
13521;DHT22;6832;51.186;3.236;2023-07-16T07:38:34;26.30;48.10
13521;DHT22;6832;51.186;3.236;2023-07-16T07:41:01;26.30;48.10
13521;DHT22;6832;51.186;3.236;2023-07-16T07:43:28;26.30;48.10
13521;DHT22;6832;51.186;3.236;2023-07-16T07:45:55;26.30;48.10
13521;DHT22;6832;51.186;3.236;2023-07-16T07:48:23;26.30;48.10
13521;DHT22;6832;51.186;3.236;2023-07-16T07:50:50;26.30;48.10
13521;DHT22;6832;51.186;3.236;2023-07-16T07:53:17;26.30;48.10
13521;DHT22;6832;51.186;3.236;2023-07-16T07:55:44;26.30;48.10
13521;DHT22;6832;51.186;3.236;2023-07-16T07:58:11;26.30;48.10
13521;DHT22;6832;51.186;3.236;2023-07-16T08:00:38;26.30;48.10
13521;DHT22;6832;51.186;3.236;2023-07-16T08:03:05;26.30;48.10
13521;DHT22;6832;51.186;3.236;2023-07-16T08:05:33;26.40;48.30
13521;DHT22;6832;51.186;3.236;2023-07-16T08:08:00;26.40;48.40
13521;DHT22;6832;51.186;3.236;2023-07-16T08:10:27;26.40;48.40
13521;DHT22;6832;51.186;3.236;2023-07-16T08:12:54;26.40;48.40
13521;DHT22;6832;51.186;3.236;2023-07-16T08:15:21;26.40;48.40
13521;DHT22;6832;51.186;3.236;2023-07-16T08:17:48;26.40;48.40
13521;DHT22;6832;51.186;3.236;2023-07-16T08:20:15;26.40;48.90
13521;DHT22;6832;51.186;3.236;2023-07-16T08:22:43;26.40;48.40
13521;DHT22;6832;51.186;3.236;2023-07-16T08:25:10;26.50;48.50
13521;DHT22;6832;51.186;3.236;2023-07-16T08:27:37;26.50;48.60
13521;DHT22;6832;51.186;3.236;2023-07-16T08:30:05;26.50;48.60
13521;DHT22;6832;51.186;3.236;2023-07-16T08:32:32;26.50;48.60
13521;DHT22;6832;51.186;3.236;2023-07-16T08:34:59;26.50;48.60
13521;DHT22;6832;51.186;3.236;2023-07-16T08:37:26;26.60;48.60
13521;DHT22;6832;51.186;3.236;2023-07-16T08:39:54;26.50;48.60
13521;DHT22;6832;51.186;3.236;2023-07-16T08:42:21;26.50;48.60
13521;DHT22;6832;51.186;3.236;2023-07-16T08:44:49;26.60;48.60
13521;DHT22;6832;51.186;3.236;2023-07-16T08:47:17;26.60;48.50
13521;DHT22;6832;51.186;3.236;2023-07-16T08:49:53;26.60;48.40
13521;DHT22;6832;51.186;3.236;2023-07-16T08:52:20;26.60;48.40
13521;DHT22;6832;51.186;3.236;2023-07-16T08:54:47;26.60;48.30
13521;DHT22;6832;51.186;3.236;2023-07-16T08:57:15;26.60;48.30
13521;DHT22;6832;51.186;3.236;2023-07-16T08:59:43;26.60;48.20
13521;DHT22;6832;51.186;3.236;2023-07-16T09:02:11;26.60;48.30
13521;DHT22;6832;51.186;3.236;2023-07-16T09:04:39;26.60;48.30
13521;DHT22;6832;51.186;3.236;2023-07-16T09:07:06;26.60;48.30
13521;DHT22;6832;51.186;3.236;2023-07-16T09:09:32;26.60;48.30
13521;DHT22;6832;51.186;3.236;2023-07-16T09:11:59;26.60;48.40
13521;DHT22;6832;51.186;3.236;2023-07-16T09:14:28;26.70;48.50
13521;DHT22;6832;51.186;3.236;2023-07-16T09:16:54;26.70;48.50
13521;DHT22;6832;51.186;3.236;2023-07-16T09:19:22;26.70;48.50
13521;DHT22;6832;51.186;3.236;2023-07-16T09:21:49;26.70;48.50
13521;DHT22;6832;51.186;3.236;2023-07-16T09:24:19;26.80;48.50
13521;DHT22;6832;51.186;3.236;2023-07-16T09:26:49;26.80;48.50
13521;DHT22;6832;51.186;3.236;2023-07-16T09:29:16;26.80;48.50
13521;DHT22;6832;51.186;3.236;2023-07-16T09:31:59;26.90;49.10
13521;DHT22;6832;51.186;3.236;2023-07-16T09:34:27;26.90;48.60
13521;DHT22;6832;51.186;3.236;2023-07-16T09:36:55;26.90;48.40
13521;DHT22;6832;51.186;3.236;2023-07-16T09:39:22;26.90;48.40
13521;DHT22;6832;51.186;3.236;2023-07-16T09:41:50;27.00;49.10
13521;DHT22;6832;51.186;3.236;2023-07-16T09:44:18;27.00;48.50
13521;DHT22;6832;51.186;3.236;2023-07-16T09:46:46;27.00;48.50
13521;DHT22;6832;51.186;3.236;2023-07-16T09:49:15;27.00;48.50
13521;DHT22;6832;51.186;3.236;2023-07-16T09:51:43;27.10;49.10
13521;DHT22;6832;51.186;3.236;2023-07-16T09:54:12;27.10;48.50
13521;DHT22;6832;51.186;3.236;2023-07-16T09:56:43;27.10;48.40
13521;DHT22;6832;51.186;3.236;2023-07-16T09:59:14;27.10;48.40
13521;DHT22;6832;51.186;3.236;2023-07-16T10:01:42;27.20;49.10
13521;DHT22;6832;51.186;3.236;2023-07-16T10:04:16;27.20;48.40
13521;DHT22;6832;51.186;3.236;2023-07-16T10:06:50;27.20;48.40
13521;DHT22;6832;51.186;3.236;2023-07-16T10:09:32;27.30;48.50
13521;DHT22;6832;51.186;3.236;2023-07-16T10:12:08;27.30;48.50
13521;DHT22;6832;51.186;3.236;2023-07-16T10:14:39;27.30;48.50
13521;DHT22;6832;51.186;3.236;2023-07-16T10:17:06;27.30;48.50
13521;DHT22;6832;51.186;3.236;2023-07-16T10:19:46;27.40;48.50
13521;DHT22;6832;51.186;3.236;2023-07-16T10:22:13;27.40;48.40
13521;DHT22;6832;51.186;3.236;2023-07-16T10:24:40;27.40;48.40
13521;DHT22;6832;51.186;3.236;2023-07-16T10:27:07;27.50;48.40
13521;DHT22;6832;51.186;3.236;2023-07-16T10:29:34;27.50;48.30
13521;DHT22;6832;51.186;3.236;2023-07-16T10:32:02;27.50;48.30
13521;DHT22;6832;51.186;3.236;2023-07-16T10:34:36;27.50;48.30
13521;DHT22;6832;51.186;3.236;2023-07-16T10:37:03;27.50;48.30
13521;DHT22;6832;51.186;3.236;2023-07-16T10:39:30;27.50;48.20
13521;DHT22;6832;51.186;3.236;2023-07-16T10:41:57;27.50;48.20
13521;DHT22;6832;51.186;3.236;2023-07-16T10:44:24;27.50;48.10
13521;DHT22;6832;51.186;3.236;2023-07-16T10:46:52;27.50;48.10
13521;DHT22;6832;51.186;3.236;2023-07-16T10:49:27;27.50;48.20
13521;DHT22;6832;51.186;3.236;2023-07-16T10:51:58;27.50;48.30
13521;DHT22;6832;51.186;3.236;2023-07-16T10:54:25;27.50;48.30
13521;DHT22;6832;51.186;3.236;2023-07-16T10:56:52;27.50;48.50
13521;DHT22;6832;51.186;3.236;2023-07-16T10:59:19;27.60;48.60
13521;DHT22;6832;51.186;3.236;2023-07-16T11:01:46;27.70;48.90
13521;DHT22;6832;51.186;3.236;2023-07-16T11:04:13;27.80;49.10
13521;DHT22;6832;51.186;3.236;2023-07-16T11:06:40;27.90;49.10
13521;DHT22;6832;51.186;3.236;2023-07-16T11:09:09;28.00;49.10
13521;DHT22;6832;51.186;3.236;2023-07-16T11:11:36;28.20;49.10
13521;DHT22;6832;51.186;3.236;2023-07-16T11:14:04;28.40;48.90
13521;DHT22;6832;51.186;3.236;2023-07-16T11:16:33;28.60;48.80
13521;DHT22;6832;51.186;3.236;2023-07-16T11:19:02;28.70;48.70
13521;DHT22;6832;51.186;3.236;2023-07-16T11:21:30;28.90;48.50
13521;DHT22;6832;51.186;3.236;2023-07-16T11:24:09;29.10;48.60
13521;DHT22;6832;51.186;3.236;2023-07-16T11:26:36;29.20;48.30
13521;DHT22;6832;51.186;3.236;2023-07-16T11:29:12;29.40;48.20
13521;DHT22;6832;51.186;3.236;2023-07-16T11:31:40;29.50;48.00
13521;DHT22;6832;51.186;3.236;2023-07-16T11:34:07;29.70;47.80
13521;DHT22;6832;51.186;3.236;2023-07-16T11:36:34;29.70;47.70
13521;DHT22;6832;51.186;3.236;2023-07-16T11:39:03;29.80;47.50
13521;DHT22;6832;51.186;3.236;2023-07-16T11:41:32;30.00;47.60
13521;DHT22;6832;51.186;3.236;2023-07-16T11:44:00;30.10;47.60
13521;DHT22;6832;51.186;3.236;2023-07-16T11:46:31;30.20;47.60
13521;DHT22;6832;51.186;3.236;2023-07-16T11:48:59;30.20;47.30
13521;DHT22;6832;51.186;3.236;2023-07-16T11:51:26;30.40;47.30
13521;DHT22;6832;51.186;3.236;2023-07-16T11:53:55;30.50;47.20
13521;DHT22;6832;51.186;3.236;2023-07-16T11:56:22;30.60;46.90
13521;DHT22;6832;51.186;3.236;2023-07-16T11:58:51;30.70;46.90
13521;DHT22;6832;51.186;3.236;2023-07-16T12:01:17;30.70;46.60
13521;DHT22;6832;51.186;3.236;2023-07-16T12:03:44;30.80;46.60
13521;DHT22;6832;51.186;3.236;2023-07-16T12:06:11;30.90;46.60
13521;DHT22;6832;51.186;3.236;2023-07-16T12:08:38;31.00;46.40
13521;DHT22;6832;51.186;3.236;2023-07-16T12:11:05;31.20;46.50
13521;DHT22;6832;51.186;3.236;2023-07-16T12:13:32;31.20;46.50
13521;DHT22;6832;51.186;3.236;2023-07-16T12:16:01;31.40;46.40
13521;DHT22;6832;51.186;3.236;2023-07-16T12:18:27;31.40;46.10
13521;DHT22;6832;51.186;3.236;2023-07-16T12:20:56;31.60;45.90
13521;DHT22;6832;51.186;3.236;2023-07-16T12:23:23;31.60;45.50
13521;DHT22;6832;51.186;3.236;2023-07-16T12:25:50;31.60;45.50
13521;DHT22;6832;51.186;3.236;2023-07-16T12:28:17;31.70;45.30
13521;DHT22;6832;51.186;3.236;2023-07-16T12:30:44;31.70;45.10
13521;DHT22;6832;51.186;3.236;2023-07-16T12:33:12;31.70;45.20
13521;DHT22;6832;51.186;3.236;2023-07-16T12:35:39;31.70;44.80
13521;DHT22;6832;51.186;3.236;2023-07-16T12:38:06;31.70;44.90
13521;DHT22;6832;51.186;3.236;2023-07-16T12:40:33;31.70;44.80
13521;DHT22;6832;51.186;3.236;2023-07-16T12:43:05;31.70;44.90
13521;DHT22;6832;51.186;3.236;2023-07-16T12:45:32;31.80;44.90
13521;DHT22;6832;51.186;3.236;2023-07-16T12:47:59;31.80;44.80
13521;DHT22;6832;51.186;3.236;2023-07-16T12:50:27;31.90;44.80
13521;DHT22;6832;51.186;3.236;2023-07-16T12:52:55;31.90;44.50
13521;DHT22;6832;51.186;3.236;2023-07-16T12:55:22;31.90;44.50
13521;DHT22;6832;51.186;3.236;2023-07-16T12:57:49;31.90;44.40
13521;DHT22;6832;51.186;3.236;2023-07-16T13:00:16;31.90;44.30
13521;DHT22;6832;51.186;3.236;2023-07-16T13:02:42;31.90;44.30
13521;DHT22;6832;51.186;3.236;2023-07-16T13:05:09;31.80;44.20
13521;DHT22;6832;51.186;3.236;2023-07-16T13:07:37;31.80;44.20
13521;DHT22;6832;51.186;3.236;2023-07-16T13:10:05;31.70;44.10
13521;DHT22;6832;51.186;3.236;2023-07-16T13:12:33;31.70;44.10
13521;DHT22;6832;51.186;3.236;2023-07-16T13:15:00;31.60;44.10
13521;DHT22;6832;51.186;3.236;2023-07-16T13:17:26;31.60;44.10
13521;DHT22;6832;51.186;3.236;2023-07-16T13:19:53;31.50;44.10
13521;DHT22;6832;51.186;3.236;2023-07-16T13:22:20;31.40;44.00
13521;DHT22;6832;51.186;3.236;2023-07-16T13:24:49;31.40;44.10
13521;DHT22;6832;51.186;3.236;2023-07-16T13:27:20;31.30;44.10
13521;DHT22;6832;51.186;3.236;2023-07-16T13:29:47;31.20;44.00
13521;DHT22;6832;51.186;3.236;2023-07-16T13:32:14;31.20;44.20
13521;DHT22;6832;51.186;3.236;2023-07-16T13:34:41;31.20;44.10
13521;DHT22;6832;51.186;3.236;2023-07-16T13:37:07;31.10;44.20
13521;DHT22;6832;51.186;3.236;2023-07-16T13:39:34;31.00;44.20
13521;DHT22;6832;51.186;3.236;2023-07-16T13:42:03;30.90;44.10
13521;DHT22;6832;51.186;3.236;2023-07-16T13:44:31;30.90;44.10
13521;DHT22;6832;51.186;3.236;2023-07-16T13:46:58;30.80;44.10
13521;DHT22;6832;51.186;3.236;2023-07-16T13:49:25;30.80;44.20
13521;DHT22;6832;51.186;3.236;2023-07-16T13:51:52;30.70;44.30
13521;DHT22;6832;51.186;3.236;2023-07-16T13:54:19;30.60;44.30
13521;DHT22;6832;51.186;3.236;2023-07-16T13:56:46;30.60;44.40
13521;DHT22;6832;51.186;3.236;2023-07-16T13:59:14;30.50;44.40
13521;DHT22;6832;51.186;3.236;2023-07-16T14:01:43;30.40;44.40
13521;DHT22;6832;51.186;3.236;2023-07-16T14:04:10;30.40;44.50
13521;DHT22;6832;51.186;3.236;2023-07-16T14:06:36;30.30;44.50
13521;DHT22;6832;51.186;3.236;2023-07-16T14:09:03;30.30;44.70
13521;DHT22;6832;51.186;3.236;2023-07-16T14:11:31;30.30;44.70
13521;DHT22;6832;51.186;3.236;2023-07-16T14:13:58;30.20;44.60
13521;DHT22;6832;51.186;3.236;2023-07-16T14:16:27;30.20;44.60
13521;DHT22;6832;51.186;3.236;2023-07-16T14:18:53;30.10;44.60
13521;DHT22;6832;51.186;3.236;2023-07-16T14:21:20;30.10;44.60
13521;DHT22;6832;51.186;3.236;2023-07-16T14:23:47;30.10;44.60
13521;DHT22;6832;51.186;3.236;2023-07-16T14:26:14;30.00;44.60
13521;DHT22;6832;51.186;3.236;2023-07-16T14:28:41;30.00;44.60
13521;DHT22;6832;51.186;3.236;2023-07-16T14:31:08;29.90;44.60
13521;DHT22;6832;51.186;3.236;2023-07-16T14:33:37;29.90;44.90
13521;DHT22;6832;51.186;3.236;2023-07-16T14:36:04;29.90;44.80
13521;DHT22;6832;51.186;3.236;2023-07-16T14:38:31;29.90;44.80
13521;DHT22;6832;51.186;3.236;2023-07-16T14:40:59;29.80;44.80
13521;DHT22;6832;51.186;3.236;2023-07-16T14:43:26;29.80;44.90
13521;DHT22;6832;51.186;3.236;2023-07-16T14:45:53;29.80;44.90
13521;DHT22;6832;51.186;3.236;2023-07-16T14:48:20;29.80;44.90
13521;DHT22;6832;51.186;3.236;2023-07-16T14:50:50;29.70;44.90
13521;DHT22;6832;51.186;3.236;2023-07-16T14:53:17;29.80;44.90
13521;DHT22;6832;51.186;3.236;2023-07-16T14:55:47;29.70;45.00
13521;DHT22;6832;51.186;3.236;2023-07-16T14:58:14;29.70;45.00
13521;DHT22;6832;51.186;3.236;2023-07-16T15:00:40;29.60;44.90
13521;DHT22;6832;51.186;3.236;2023-07-16T15:03:07;29.60;45.60
13521;DHT22;6832;51.186;3.236;2023-07-16T15:05:34;29.60;45.00
13521;DHT22;6832;51.186;3.236;2023-07-16T15:08:03;29.60;45.10
13521;DHT22;6832;51.186;3.236;2023-07-16T15:10:30;29.60;45.10
13521;DHT22;6832;51.186;3.236;2023-07-16T15:12:57;29.60;45.20
13521;DHT22;6832;51.186;3.236;2023-07-16T15:15:24;29.50;45.10
13521;DHT22;6832;51.186;3.236;2023-07-16T15:17:51;29.60;45.20
13521;DHT22;6832;51.186;3.236;2023-07-16T15:20:18;29.50;45.20
13521;DHT22;6832;51.186;3.236;2023-07-16T15:22:46;29.60;45.20
13521;DHT22;6832;51.186;3.236;2023-07-16T15:25:14;29.50;45.20
13521;DHT22;6832;51.186;3.236;2023-07-16T15:27:41;29.50;45.20
13521;DHT22;6832;51.186;3.236;2023-07-16T15:30:09;29.50;45.20
13521;DHT22;6832;51.186;3.236;2023-07-16T15:32:36;29.50;45.20
13521;DHT22;6832;51.186;3.236;2023-07-16T15:35:04;29.50;45.20
13521;DHT22;6832;51.186;3.236;2023-07-16T15:37:31;29.50;45.20
13521;DHT22;6832;51.186;3.236;2023-07-16T15:39:58;29.50;45.30
13521;DHT22;6832;51.186;3.236;2023-07-16T15:42:26;29.50;45.30
13521;DHT22;6832;51.186;3.236;2023-07-16T15:44:53;29.40;45.20
13521;DHT22;6832;51.186;3.236;2023-07-16T15:47:20;29.40;45.20